Decoded Metar for KMAI (MARIANNA in FL, USA) (IATA:MAI) | Meteo·Mobile Aviation Weather
aviador You're here:

KMAI Decoded Metar

MARIANNA in FL, USA
Report Time2018-12-17 13:53:00
UTC Time2018-12-17 14:01:22
Flight Rules vfr VFR
Wind260° at 03 kt
W.Decomp.*RWY 26: 3.0 kt HW 0.1 kt RCW
RWY 18: 0.4 kt HW 3.0 kt RCW
W.Rank260° ranks 23
Current wind is below 260° avg. (6.5)
Visibility9999 m
Phenomena:N/A
Clouds:N/A
CeilingNone
Temp09°C (ISA -6)
Dew Point09°C (100% RH)
AAT7.7°C
QNH1023 hPa
Density Alt-774 ft
Elevation105 ft
Report Wrong Elevation
Raw Report
METAR KMAI 171353Z AUTO 26003KT 10SM CLR 09/09 A3020 RMK AO2 SLP226
T00890089=

Extra information for KMAI:More info

Metar Taf Metar & Taf Last 4 Metars F.Rules Stats Wind Profile Meteogram Temp Stats Airport Information Weather charts Add Link Nearby VenuesMetar ALERT Operation Metar Decoded Social comments

AIRNAV info for KMAI